sensor_id;sensor_type;location;lat;lon;timestamp;temperature;humidity
7518;DHT22;3800;48.922;9.444;2023-03-01T00:00:12;-1.30;99.90
7518;DHT22;3800;48.922;9.444;2023-03-01T00:02:40;-1.30;99.90
7518;DHT22;3800;48.922;9.444;2023-03-01T00:05:08;-1.30;99.90
7518;DHT22;3800;48.922;9.444;2023-03-01T00:07:36;-1.30;99.90
7518;DHT22;3800;48.922;9.444;2023-03-01T00:10:03;-1.30;99.90
7518;DHT22;3800;48.922;9.444;2023-03-01T00:12:31;-1.40;99.90
7518;DHT22;3800;48.922;9.444;2023-03-01T00:14:59;-1.30;99.90
7518;DHT22;3800;48.922;9.444;2023-03-01T00:17:27;-1.40;99.90
7518;DHT22;3800;48.922;9.444;2023-03-01T00:19:54;-1.40;99.90
7518;DHT22;3800;48.922;9.444;2023-03-01T00:22:22;-1.40;99.90
7518;DHT22;3800;48.922;9.444;2023-03-01T00:24:49;-1.40;99.90
7518;DHT22;3800;48.922;9.444;2023-03-01T00:27:17;-1.40;99.90
7518;DHT22;3800;48.922;9.444;2023-03-01T00:29:44;-1.40;99.90
7518;DHT22;3800;48.922;9.444;2023-03-01T00:32:12;-1.40;99.90
7518;DHT22;3800;48.922;9.444;2023-03-01T00:34:40;-1.50;99.90
7518;DHT22;3800;48.922;9.444;2023-03-01T00:37:07;-1.50;99.90
7518;DHT22;3800;48.922;9.444;2023-03-01T00:39:35;-1.50;99.90
7518;DHT22;3800;48.922;9.444;2023-03-01T00:42:03;-1.50;99.90
7518;DHT22;3800;48.922;9.444;2023-03-01T00:44:30;-1.50;99.90
7518;DHT22;3800;48.922;9.444;2023-03-01T00:46:59;-1.50;99.90
7518;DHT22;3800;48.922;9.444;2023-03-01T00:49:26;-1.50;99.90
7518;DHT22;3800;48.922;9.444;2023-03-01T00:51:55;-1.50;99.90
7518;DHT22;3800;48.922;9.444;2023-03-01T00:54:22;-1.60;99.90
7518;DHT22;3800;48.922;9.444;2023-03-01T00:56:50;-1.50;99.90
7518;DHT22;3800;48.922;9.444;2023-03-01T00:59:18;-1.60;99.90
7518;DHT22;3800;48.922;9.444;2023-03-01T01:01:45;-1.60;99.90
7518;DHT22;3800;48.922;9.444;2023-03-01T01:04:14;-1.60;99.90
7518;DHT22;3800;48.922;9.444;2023-03-01T01:06:43;-1.60;99.90
7518;DHT22;3800;48.922;9.444;2023-03-01T01:09:11;-1.60;99.90
7518;DHT22;3800;48.922;9.444;2023-03-01T01:11:37;-1.60;99.90
7518;DHT22;3800;48.922;9.444;2023-03-01T01:14:06;-1.60;99.90
7518;DHT22;3800;48.922;9.444;2023-03-01T01:16:33;-1.60;99.90
7518;DHT22;3800;48.922;9.444;2023-03-01T01:19:01;-1.60;99.90
7518;DHT22;3800;48.922;9.444;2023-03-01T01:21:29;-1.70;99.90
7518;DHT22;3800;48.922;9.444;2023-03-01T01:23:57;-1.70;99.90
7518;DHT22;3800;48.922;9.444;2023-03-01T01:26:27;-1.60;99.90
7518;DHT22;3800;48.922;9.444;2023-03-01T01:28:53;-1.60;99.90
7518;DHT22;3800;48.922;9.444;2023-03-01T01:31:21;-1.60;99.90
7518;DHT22;3800;48.922;9.444;2023-03-01T01:33:49;-1.50;99.90
7518;DHT22;3800;48.922;9.444;2023-03-01T01:36:16;-1.50;99.90
7518;DHT22;3800;48.922;9.444;2023-03-01T01:38:44;-1.50;99.90
7518;DHT22;3800;48.922;9.444;2023-03-01T01:41:12;-1.50;99.90
7518;DHT22;3800;48.922;9.444;2023-03-01T01:43:40;-1.40;99.90
7518;DHT22;3800;48.922;9.444;2023-03-01T01:46:15;-1.40;99.90
7518;DHT22;3800;48.922;9.444;2023-03-01T01:48:43;-1.40;99.90
7518;DHT22;3800;48.922;9.444;2023-03-01T01:51:13;-1.30;99.90
7518;DHT22;3800;48.922;9.444;2023-03-01T01:53:38;-1.30;99.90
7518;DHT22;3800;48.922;9.444;2023-03-01T01:56:06;-1.30;99.90
7518;DHT22;3800;48.922;9.444;2023-03-01T01:58:33;-1.30;99.90
7518;DHT22;3800;48.922;9.444;2023-03-01T02:01:01;-1.20;99.90
7518;DHT22;3800;48.922;9.444;2023-03-01T02:03:30;-1.20;99.90
7518;DHT22;3800;48.922;9.444;2023-03-01T02:06:04;-1.20;99.90
7518;DHT22;3800;48.922;9.444;2023-03-01T02:08:32;-1.20;99.90
7518;DHT22;3800;48.922;9.444;2023-03-01T02:10:58;-1.10;99.90
7518;DHT22;3800;48.922;9.444;2023-03-01T02:13:27;-1.10;99.90
7518;DHT22;3800;48.922;9.444;2023-03-01T02:15:54;-1.10;99.90
7518;DHT22;3800;48.922;9.444;2023-03-01T02:18:22;-1.00;99.90
7518;DHT22;3800;48.922;9.444;2023-03-01T02:20:54;-1.00;99.90
7518;DHT22;3800;48.922;9.444;2023-03-01T02:23:17;-1.00;99.90
7518;DHT22;3800;48.922;9.444;2023-03-01T02:26:01;-1.00;99.90
7518;DHT22;3800;48.922;9.444;2023-03-01T02:28:32;-0.90;99.90
7518;DHT22;3800;48.922;9.444;2023-03-01T02:30:59;-1.00;99.90
7518;DHT22;3800;48.922;9.444;2023-03-01T02:33:33;-0.90;99.90
7518;DHT22;3800;48.922;9.444;2023-03-01T02:36:01;-0.90;99.90
7518;DHT22;3800;48.922;9.444;2023-03-01T02:38:28;-0.90;99.90
7518;DHT22;3800;48.922;9.444;2023-03-01T02:40:56;-0.90;99.90
7518;DHT22;3800;48.922;9.444;2023-03-01T02:43:24;-0.90;99.90
7518;DHT22;3800;48.922;9.444;2023-03-01T02:45:51;-0.80;99.90
7518;DHT22;3800;48.922;9.444;2023-03-01T02:48:19;-0.80;99.90
7518;DHT22;3800;48.922;9.444;2023-03-01T02:51:04;-0.80;99.90
7518;DHT22;3800;48.922;9.444;2023-03-01T02:53:34;-0.80;99.90
7518;DHT22;3800;48.922;9.444;2023-03-01T02:56:00;-0.80;99.90
7518;DHT22;3800;48.922;9.444;2023-03-01T02:58:27;-0.80;99.90
7518;DHT22;3800;48.922;9.444;2023-03-01T03:00:54;-0.80;99.90
7518;DHT22;3800;48.922;9.444;2023-03-01T03:03:22;-0.80;99.90
7518;DHT22;3800;48.922;9.444;2023-03-01T03:05:51;-0.80;99.90
7518;DHT22;3800;48.922;9.444;2023-03-01T03:08:18;-0.80;99.90
7518;DHT22;3800;48.922;9.444;2023-03-01T03:10:47;-0.80;99.90
7518;DHT22;3800;48.922;9.444;2023-03-01T03:13:14;-0.80;99.90
7518;DHT22;3800;48.922;9.444;2023-03-01T03:15:42;-0.80;99.90
7518;DHT22;3800;48.922;9.444;2023-03-01T03:18:11;-0.80;99.90
7518;DHT22;3800;48.922;9.444;2023-03-01T03:20:38;-0.80;99.90
7518;DHT22;3800;48.922;9.444;2023-03-01T03:23:06;-0.80;99.90
7518;DHT22;3800;48.922;9.444;2023-03-01T03:25:33;-0.80;99.90
7518;DHT22;3800;48.922;9.444;2023-03-01T03:28:02;-0.80;99.90
7518;DHT22;3800;48.922;9.444;2023-03-01T03:30:30;-0.80;99.90
7518;DHT22;3800;48.922;9.444;2023-03-01T03:32:57;-0.70;99.90
7518;DHT22;3800;48.922;9.444;2023-03-01T03:35:26;-0.70;99.90
7518;DHT22;3800;48.922;9.444;2023-03-01T03:37:53;-0.70;99.90
7518;DHT22;3800;48.922;9.444;2023-03-01T03:40:26;-0.70;99.90
7518;DHT22;3800;48.922;9.444;2023-03-01T03:42:54;-0.70;99.90
7518;DHT22;3800;48.922;9.444;2023-03-01T03:45:21;-0.70;99.90
7518;DHT22;3800;48.922;9.444;2023-03-01T03:47:49;-0.70;99.90
7518;DHT22;3800;48.922;9.444;2023-03-01T03:50:17;-0.70;99.90
7518;DHT22;3800;48.922;9.444;2023-03-01T03:52:44;-0.70;99.90
7518;DHT22;3800;48.922;9.444;2023-03-01T03:55:13;-0.70;99.90
7518;DHT22;3800;48.922;9.444;2023-03-01T03:57:41;-0.70;99.90
7518;DHT22;3800;48.922;9.444;2023-03-01T04:00:10;-0.60;99.90
7518;DHT22;3800;48.922;9.444;2023-03-01T04:02:38;-0.70;99.90
7518;DHT22;3800;48.922;9.444;2023-03-01T04:05:06;-0.60;99.90
7518;DHT22;3800;48.922;9.444;2023-03-01T04:07:35;-0.60;99.90
7518;DHT22;3800;48.922;9.444;2023-03-01T04:10:03;-0.60;99.90
7518;DHT22;3800;48.922;9.444;2023-03-01T04:12:30;-0.60;99.90
7518;DHT22;3800;48.922;9.444;2023-03-01T04:14:57;-0.60;99.90
7518;DHT22;3800;48.922;9.444;2023-03-01T04:17:25;-0.60;99.90
7518;DHT22;3800;48.922;9.444;2023-03-01T04:19:53;-0.70;99.90
7518;DHT22;3800;48.922;9.444;2023-03-01T04:22:20;-0.70;99.90
7518;DHT22;3800;48.922;9.444;2023-03-01T04:24:48;-0.70;99.90
7518;DHT22;3800;48.922;9.444;2023-03-01T04:27:16;-0.70;99.90
7518;DHT22;3800;48.922;9.444;2023-03-01T04:29:43;-0.60;99.90
7518;DHT22;3800;48.922;9.444;2023-03-01T04:32:11;-0.60;99.90
7518;DHT22;3800;48.922;9.444;2023-03-01T04:34:39;-0.60;99.90
7518;DHT22;3800;48.922;9.444;2023-03-01T04:37:06;-0.60;99.90
7518;DHT22;3800;48.922;9.444;2023-03-01T04:39:34;-0.60;99.90
7518;DHT22;3800;48.922;9.444;2023-03-01T04:42:02;-0.60;99.90
7518;DHT22;3800;48.922;9.444;2023-03-01T04:44:30;-0.60;99.90
7518;DHT22;3800;48.922;9.444;2023-03-01T04:46:57;-0.60;99.90
7518;DHT22;3800;48.922;9.444;2023-03-01T04:49:25;-0.60;99.90
7518;DHT22;3800;48.922;9.444;2023-03-01T04:51:53;-0.60;99.90
7518;DHT22;3800;48.922;9.444;2023-03-01T04:54:21;-0.60;99.90
7518;DHT22;3800;48.922;9.444;2023-03-01T04:56:49;-0.60;99.90
7518;DHT22;3800;48.922;9.444;2023-03-01T04:59:17;-0.60;99.90
7518;DHT22;3800;48.922;9.444;2023-03-01T05:01:45;-0.60;99.90
7518;DHT22;3800;48.922;9.444;2023-03-01T05:04:13;-0.60;99.90
7518;DHT22;3800;48.922;9.444;2023-03-01T05:06:40;-0.60;99.90
7518;DHT22;3800;48.922;9.444;2023-03-01T05:09:08;-0.60;99.90
7518;DHT22;3800;48.922;9.444;2023-03-01T05:11:35;-0.60;99.90
7518;DHT22;3800;48.922;9.444;2023-03-01T05:14:05;-0.60;99.90
7518;DHT22;3800;48.922;9.444;2023-03-01T05:16:32;-0.60;99.90
7518;DHT22;3800;48.922;9.444;2023-03-01T05:19:00;-0.60;99.90
7518;DHT22;3800;48.922;9.444;2023-03-01T05:21:27;-0.60;99.90
7518;DHT22;3800;48.922;9.444;2023-03-01T05:23:55;-0.60;99.90
7518;DHT22;3800;48.922;9.444;2023-03-01T05:26:23;-0.60;99.90
7518;DHT22;3800;48.922;9.444;2023-03-01T05:28:50;-0.60;99.90
7518;DHT22;3800;48.922;9.444;2023-03-01T05:31:18;-0.60;99.90
7518;DHT22;3800;48.922;9.444;2023-03-01T05:33:46;-0.60;99.90
7518;DHT22;3800;48.922;9.444;2023-03-01T05:36:15;-0.60;99.90
7518;DHT22;3800;48.922;9.444;2023-03-01T05:38:42;-0.60;99.90
7518;DHT22;3800;48.922;9.444;2023-03-01T05:41:13;-0.60;99.90
7518;DHT22;3800;48.922;9.444;2023-03-01T05:43:40;-0.60;99.90
7518;DHT22;3800;48.922;9.444;2023-03-01T05:46:08;-0.60;99.90
7518;DHT22;3800;48.922;9.444;2023-03-01T05:48:38;-0.60;99.90
7518;DHT22;3800;48.922;9.444;2023-03-01T05:51:07;-0.60;99.90
7518;DHT22;3800;48.922;9.444;2023-03-01T05:53:34;-0.60;99.90
7518;DHT22;3800;48.922;9.444;2023-03-01T05:56:03;-0.60;99.90
7518;DHT22;3800;48.922;9.444;2023-03-01T05:58:31;-0.60;99.90
7518;DHT22;3800;48.922;9.444;2023-03-01T06:00:59;-0.60;99.90
7518;DHT22;3800;48.922;9.444;2023-03-01T06:03:26;-0.60;99.90
7518;DHT22;3800;48.922;9.444;2023-03-01T06:05:56;-0.70;99.90
7518;DHT22;3800;48.922;9.444;2023-03-01T06:08:23;-0.70;99.90
7518;DHT22;3800;48.922;9.444;2023-03-01T06:10:51;-0.70;99.90
7518;DHT22;3800;48.922;9.444;2023-03-01T06:13:18;-0.80;99.90
7518;DHT22;3800;48.922;9.444;2023-03-01T06:15:46;-0.80;99.90
7518;DHT22;3800;48.922;9.444;2023-03-01T06:18:14;-0.90;99.90
7518;DHT22;3800;48.922;9.444;2023-03-01T06:20:41;-0.90;99.90
7518;DHT22;3800;48.922;9.444;2023-03-01T06:23:09;-1.00;99.90
7518;DHT22;3800;48.922;9.444;2023-03-01T06:25:38;-1.00;99.90
7518;DHT22;3800;48.922;9.444;2023-03-01T06:28:06;-1.10;99.90
7518;DHT22;3800;48.922;9.444;2023-03-01T06:30:34;-1.10;99.90
7518;DHT22;3800;48.922;9.444;2023-03-01T06:33:02;-1.10;99.90
7518;DHT22;3800;48.922;9.444;2023-03-01T06:35:31;-1.10;99.90
7518;DHT22;3800;48.922;9.444;2023-03-01T06:37:59;-1.10;99.90
7518;DHT22;3800;48.922;9.444;2023-03-01T06:40:26;-1.10;99.90
7518;DHT22;3800;48.922;9.444;2023-03-01T06:42:54;-1.10;99.90
7518;DHT22;3800;48.922;9.444;2023-03-01T06:45:21;-1.10;99.90
7518;DHT22;3800;48.922;9.444;2023-03-01T06:47:50;-1.10;99.90
7518;DHT22;3800;48.922;9.444;2023-03-01T06:50:18;-1.10;99.90
7518;DHT22;3800;48.922;9.444;2023-03-01T06:52:46;-1.10;99.90
7518;DHT22;3800;48.922;9.444;2023-03-01T06:55:14;-1.10;99.90
7518;DHT22;3800;48.922;9.444;2023-03-01T06:57:42;-1.20;99.90
7518;DHT22;3800;48.922;9.444;2023-03-01T07:00:10;-1.20;99.90
7518;DHT22;3800;48.922;9.444;2023-03-01T07:02:38;-1.20;99.90
7518;DHT22;3800;48.922;9.444;2023-03-01T07:05:07;-1.20;99.90
7518;DHT22;3800;48.922;9.444;2023-03-01T07:07:34;-1.20;99.90
7518;DHT22;3800;48.922;9.444;2023-03-01T07:10:02;-1.20;99.90
7518;DHT22;3800;48.922;9.444;2023-03-01T07:12:30;-1.20;99.90
7518;DHT22;3800;48.922;9.444;2023-03-01T07:14:58;-1.10;99.90
7518;DHT22;3800;48.922;9.444;2023-03-01T07:17:25;-1.10;99.90
7518;DHT22;3800;48.922;9.444;2023-03-01T07:19:53;-1.10;99.90
7518;DHT22;3800;48.922;9.444;2023-03-01T07:22:21;-1.00;99.90
7518;DHT22;3800;48.922;9.444;2023-03-01T07:24:48;-1.00;99.90
7518;DHT22;3800;48.922;9.444;2023-03-01T07:27:16;-1.00;99.90
7518;DHT22;3800;48.922;9.444;2023-03-01T07:29:45;-1.00;99.90
7518;DHT22;3800;48.922;9.444;2023-03-01T07:32:13;-1.00;99.90
7518;DHT22;3800;48.922;9.444;2023-03-01T07:34:40;-0.90;99.90
7518;DHT22;3800;48.922;9.444;2023-03-01T07:37:08;-0.90;99.90
7518;DHT22;3800;48.922;9.444;2023-03-01T07:39:36;-0.90;99.90
7518;DHT22;3800;48.922;9.444;2023-03-01T07:42:04;-0.80;99.90
7518;DHT22;3800;48.922;9.444;2023-03-01T07:44:32;-0.80;99.90
7518;DHT22;3800;48.922;9.444;2023-03-01T07:47:02;-0.80;99.90
7518;DHT22;3800;48.922;9.444;2023-03-01T07:49:29;-0.80;99.90
7518;DHT22;3800;48.922;9.444;2023-03-01T07:51:57;-0.80;99.90
7518;DHT22;3800;48.922;9.444;2023-03-01T07:54:27;-0.70;99.90
7518;DHT22;3800;48.922;9.444;2023-03-01T07:56:56;-0.60;99.90
7518;DHT22;3800;48.922;9.444;2023-03-01T07:59:23;-0.60;99.90
7518;DHT22;3800;48.922;9.444;2023-03-01T08:01:51;-0.50;99.90
7518;DHT22;3800;48.922;9.444;2023-03-01T08:04:18;-0.40;99.90
7518;DHT22;3800;48.922;9.444;2023-03-01T08:06:46;-0.20;99.90
7518;DHT22;3800;48.922;9.444;2023-03-01T08:09:14;-0.10;99.90
7518;DHT22;3800;48.922;9.444;2023-03-01T08:11:43;0.00;99.90
7518;DHT22;3800;48.922;9.444;2023-03-01T08:14:10;0.10;99.90
7518;DHT22;3800;48.922;9.444;2023-03-01T08:16:38;0.20;99.90
7518;DHT22;3800;48.922;9.444;2023-03-01T08:19:06;0.40;99.90
7518;DHT22;3800;48.922;9.444;2023-03-01T08:21:33;0.50;99.90
7518;DHT22;3800;48.922;9.444;2023-03-01T08:24:03;0.60;99.90
7518;DHT22;3800;48.922;9.444;2023-03-01T08:26:30;0.70;99.90
7518;DHT22;3800;48.922;9.444;2023-03-01T08:29:00;0.70;99.90
7518;DHT22;3800;48.922;9.444;2023-03-01T08:31:30;0.80;99.90
7518;DHT22;3800;48.922;9.444;2023-03-01T08:33:58;0.90;99.90
7518;DHT22;3800;48.922;9.444;2023-03-01T08:36:26;1.00;99.90
7518;DHT22;3800;48.922;9.444;2023-03-01T08:38:53;1.10;99.90
7518;DHT22;3800;48.922;9.444;2023-03-01T08:41:20;1.20;99.90
7518;DHT22;3800;48.922;9.444;2023-03-01T08:43:49;1.20;99.90
7518;DHT22;3800;48.922;9.444;2023-03-01T08:46:16;1.30;99.90
7518;DHT22;3800;48.922;9.444;2023-03-01T08:48:44;1.30;99.90
7518;DHT22;3800;48.922;9.444;2023-03-01T08:51:14;1.40;99.90
7518;DHT22;3800;48.922;9.444;2023-03-01T08:53:42;1.50;99.90
7518;DHT22;3800;48.922;9.444;2023-03-01T08:56:09;1.50;99.90
7518;DHT22;3800;48.922;9.444;2023-03-01T08:58:37;1.60;99.90
7518;DHT22;3800;48.922;9.444;2023-03-01T09:01:08;1.60;99.90
7518;DHT22;3800;48.922;9.444;2023-03-01T09:03:35;1.70;99.90
7518;DHT22;3800;48.922;9.444;2023-03-01T09:06:04;1.70;99.90
7518;DHT22;3800;48.922;9.444;2023-03-01T09:08:33;1.80;99.90
7518;DHT22;3800;48.922;9.444;2023-03-01T09:11:01;1.90;99.90
7518;DHT22;3800;48.922;9.444;2023-03-01T09:13:27;1.90;99.90
7518;DHT22;3800;48.922;9.444;2023-03-01T09:15:55;2.00;99.90
7518;DHT22;3800;48.922;9.444;2023-03-01T09:18:23;2.00;99.90
7518;DHT22;3800;48.922;9.444;2023-03-01T09:20:50;2.10;99.90
7518;DHT22;3800;48.922;9.444;2023-03-01T09:23:19;2.20;99.90
7518;DHT22;3800;48.922;9.444;2023-03-01T09:25:47;2.20;99.90
7518;DHT22;3800;48.922;9.444;2023-03-01T09:28:16;2.20;99.90
7518;DHT22;3800;48.922;9.444;2023-03-01T09:30:44;2.30;99.90
7518;DHT22;3800;48.922;9.444;2023-03-01T09:33:11;2.40;99.90
7518;DHT22;3800;48.922;9.444;2023-03-01T09:35:39;2.40;99.90
7518;DHT22;3800;48.922;9.444;2023-03-01T09:38:06;2.50;99.90
7518;DHT22;3800;48.922;9.444;2023-03-01T09:40:34;2.60;99.90
7518;DHT22;3800;48.922;9.444;2023-03-01T09:43:12;2.60;99.90
7518;DHT22;3800;48.922;9.444;2023-03-01T09:45:38;2.70;99.90
7518;DHT22;3800;48.922;9.444;2023-03-01T09:48:05;2.70;99.90
7518;DHT22;3800;48.922;9.444;2023-03-01T09:50:34;2.80;99.90
7518;DHT22;3800;48.922;9.444;2023-03-01T09:53:01;2.90;99.90
7518;DHT22;3800;48.922;9.444;2023-03-01T09:55:38;2.90;99.90
7518;DHT22;3800;48.922;9.444;2023-03-01T10:00:43;3.50;99.90
7518;DHT22;3800;48.922;9.444;2023-03-01T10:03:17;3.50;99.90
7518;DHT22;3800;48.922;9.444;2023-03-01T10:05:52;3.70;99.90
7518;DHT22;3800;48.922;9.444;2023-03-01T10:08:36;3.70;99.90
7518;DHT22;3800;48.922;9.444;2023-03-01T10:11:03;3.80;99.90
7518;DHT22;3800;48.922;9.444;2023-03-01T10:16:23;4.00;99.90
7518;DHT22;3800;48.922;9.444;2023-03-01T10:18:51;4.10;99.90
7518;DHT22;3800;48.922;9.444;2023-03-01T10:21:18;4.10;99.90
7518;DHT22;3800;48.922;9.444;2023-03-01T10:23:45;4.10;99.90
7518;DHT22;3800;48.922;9.444;2023-03-01T10:26:51;4.30;99.90
7518;DHT22;3800;48.922;9.444;2023-03-01T10:29:09;4.50;99.90
7518;DHT22;3800;48.922;9.444;2023-03-01T10:31:41;4.50;99.90
7518;DHT22;3800;48.922;9.444;2023-03-01T10:34:12;4.40;99.90
7518;DHT22;3800;48.922;9.444;2023-03-01T10:36:39;4.50;99.90
7518;DHT22;3800;48.922;9.444;2023-03-01T10:39:13;4.50;99.90
7518;DHT22;3800;48.922;9.444;2023-03-01T10:44:34;4.70;99.90
7518;DHT22;3800;48.922;9.444;2023-03-01T10:46:41;4.80;99.90
7518;DHT22;3800;48.922;9.444;2023-03-01T10:49:15;4.90;99.90
7518;DHT22;3800;48.922;9.444;2023-03-01T10:51:44;5.00;99.90
7518;DHT22;3800;48.922;9.444;2023-03-01T10:54:16;5.00;99.90
7518;DHT22;3800;48.922;9.444;2023-03-01T10:56:48;5.10;99.90
7518;DHT22;3800;48.922;9.444;2023-03-01T10:59:22;5.10;99.90
7518;DHT22;3800;48.922;9.444;2023-03-01T11:01:49;5.10;99.90
7518;DHT22;3800;48.922;9.444;2023-03-01T11:04:15;5.20;99.90
7518;DHT22;3800;48.922;9.444;2023-03-01T11:06:43;5.10;99.90
7518;DHT22;3800;48.922;9.444;2023-03-01T11:09:22;5.10;99.90
7518;DHT22;3800;48.922;9.444;2023-03-01T11:11:57;5.30;99.90
7518;DHT22;3800;48.922;9.444;2023-03-01T11:14:25;5.20;99.90
7518;DHT22;3800;48.922;9.444;2023-03-01T11:17:05;5.30;99.80
7518;DHT22;3800;48.922;9.444;2023-03-01T11:19:32;5.40;99.90
7518;DHT22;3800;48.922;9.444;2023-03-01T11:22:05;5.40;99.90
7518;DHT22;3800;48.922;9.444;2023-03-01T11:24:41;5.40;99.90
7518;DHT22;3800;48.922;9.444;2023-03-01T11:27:15;5.50;99.30
7518;DHT22;3800;48.922;9.444;2023-03-01T11:29:43;5.50;99.00
7518;DHT22;3800;48.922;9.444;2023-03-01T11:32:10;5.50;99.00
7518;DHT22;3800;48.922;9.444;2023-03-01T11:34:45;5.50;99.40
7518;DHT22;3800;48.922;9.444;2023-03-01T11:37:21;5.60;99.90
7518;DHT22;3800;48.922;9.444;2023-03-01T11:39:53;5.70;99.10
7518;DHT22;3800;48.922;9.444;2023-03-01T11:42:20;5.80;99.30
7518;DHT22;3800;48.922;9.444;2023-03-01T11:44:49;5.90;99.00
7518;DHT22;3800;48.922;9.444;2023-03-01T11:47:55;5.90;99.00
7518;DHT22;3800;48.922;9.444;2023-03-01T11:50:12;6.00;99.20
7518;DHT22;3800;48.922;9.444;2023-03-01T11:52:41;6.10;99.90
7518;DHT22;3800;48.922;9.444;2023-03-01T11:55:14;6.10;98.70
7518;DHT22;3800;48.922;9.444;2023-03-01T11:57:43;6.20;99.10
7518;DHT22;3800;48.922;9.444;2023-03-01T12:00:25;6.20;98.60
7518;DHT22;3800;48.922;9.444;2023-03-01T12:03:07;6.20;98.40
7518;DHT22;3800;48.922;9.444;2023-03-01T12:05:42;6.40;98.30
7518;DHT22;3800;48.922;9.444;2023-03-01T12:08:30;6.40;98.30
7518;DHT22;3800;48.922;9.444;2023-03-01T12:11:03;6.40;98.80
7518;DHT22;3800;48.922;9.444;2023-03-01T12:14:26;6.60;98.60
7518;DHT22;3800;48.922;9.444;2023-03-01T12:17:00;6.50;98.00
7518;DHT22;3800;48.922;9.444;2023-03-01T12:19:31;6.50;98.00
7518;DHT22;3800;48.922;9.444;2023-03-01T12:22:27;6.50;97.90
7518;DHT22;3800;48.922;9.444;2023-03-01T12:25:03;6.60;98.40
7518;DHT22;3800;48.922;9.444;2023-03-01T12:27:38;6.60;97.70
7518;DHT22;3800;48.922;9.444;2023-03-01T12:30:16;6.60;98.20
7518;DHT22;3800;48.922;9.444;2023-03-01T12:32:40;6.70;98.30
7518;DHT22;3800;48.922;9.444;2023-03-01T12:35:18;6.70;98.50
7518;DHT22;3800;48.922;9.444;2023-03-01T12:40:32;6.80;98.30
7518;DHT22;3800;48.922;9.444;2023-03-01T12:43:12;6.70;97.60
7518;DHT22;3800;48.922;9.444;2023-03-01T12:46:03;6.80;98.70
7518;DHT22;3800;48.922;9.444;2023-03-01T12:51:14;6.80;98.10
7518;DHT22;3800;48.922;9.444;2023-03-01T12:53:44;6.90;98.20
7518;DHT22;3800;48.922;9.444;2023-03-01T12:56:10;6.90;98.40
7518;DHT22;3800;48.922;9.444;2023-03-01T12:58:55;6.90;97.70
7518;DHT22;3800;48.922;9.444;2023-03-01T13:01:35;6.90;97.10
7518;DHT22;3800;48.922;9.444;2023-03-01T13:04:11;6.90;98.00
7518;DHT22;3800;48.922;9.444;2023-03-01T13:06:44;6.90;97.80
7518;DHT22;3800;48.922;9.444;2023-03-01T13:09:31;7.00;98.50
7518;DHT22;3800;48.922;9.444;2023-03-01T13:11:58;7.00;97.90
7518;DHT22;3800;48.922;9.444;2023-03-01T13:14:44;7.00;97.80
7518;DHT22;3800;48.922;9.444;2023-03-01T13:17:29;7.10;99.00
7518;DHT22;3800;48.922;9.444;2023-03-01T13:19:39;7.10;98.60
7518;DHT22;3800;48.922;9.444;2023-03-01T13:22:25;7.10;98.60
7518;DHT22;3800;48.922;9.444;2023-03-01T13:25:12;7.10;98.50
7518;DHT22;3800;48.922;9.444;2023-03-01T13:27:38;7.10;97.60
7518;DHT22;3800;48.922;9.444;2023-03-01T13:30:12;7.00;98.70
7518;DHT22;3800;48.922;9.444;2023-03-01T13:32:34;7.00;99.00
7518;DHT22;3800;48.922;9.444;2023-03-01T13:35:40;7.00;98.30
7518;DHT22;3800;48.922;9.444;2023-03-01T13:37:33;7.00;98.30
7518;DHT22;3800;48.922;9.444;2023-03-01T13:40:02;7.10;98.40
7518;DHT22;3800;48.922;9.444;2023-03-01T13:42:36;7.10;98.50
7518;DHT22;3800;48.922;9.444;2023-03-01T13:45:02;7.10;98.50
7518;DHT22;3800;48.922;9.444;2023-03-01T13:47:31;7.20;98.40
7518;DHT22;3800;48.922;9.444;2023-03-01T13:50:00;7.20;98.50
7518;DHT22;3800;48.922;9.444;2023-03-01T13:52:32;7.30;98.90
7518;DHT22;3800;48.922;9.444;2023-03-01T13:54:59;7.30;99.00
7518;DHT22;3800;48.922;9.444;2023-03-01T13:57:29;7.30;98.40
7518;DHT22;3800;48.922;9.444;2023-03-01T13:59:55;7.30;98.40
7518;DHT22;3800;48.922;9.444;2023-03-01T14:02:22;7.30;98.60
7518;DHT22;3800;48.922;9.444;2023-03-01T14:04:57;7.30;98.80
7518;DHT22;3800;48.922;9.444;2023-03-01T14:07:24;7.30;99.10
7518;DHT22;3800;48.922;9.444;2023-03-01T14:09:52;7.30;98.70
7518;DHT22;3800;48.922;9.444;2023-03-01T14:12:39;7.30;98.80
7518;DHT22;3800;48.922;9.444;2023-03-01T14:15:18;7.20;98.40
7518;DHT22;3800;48.922;9.444;2023-03-01T14:17:52;7.30;98.80
7518;DHT22;3800;48.922;9.444;2023-03-01T14:20:18;7.20;98.70
7518;DHT22;3800;48.922;9.444;2023-03-01T14:22:45;7.30;98.90
7518;DHT22;3800;48.922;9.444;2023-03-01T14:25:20;7.30;98.00
7518;DHT22;3800;48.922;9.444;2023-03-01T14:27:50;7.30;98.60
7518;DHT22;3800;48.922;9.444;2023-03-01T14:30:23;7.20;98.60
7518;DHT22;3800;48.922;9.444;2023-03-01T14:32:54;7.20;98.50
7518;DHT22;3800;48.922;9.444;2023-03-01T14:35:22;7.20;98.50
7518;DHT22;3800;48.922;9.444;2023-03-01T14:37:49;7.30;99.00
7518;DHT22;3800;48.922;9.444;2023-03-01T14:40:23;7.30;98.90
7518;DHT22;3800;48.922;9.444;2023-03-01T14:42:50;7.30;98.90
7518;DHT22;3800;48.922;9.444;2023-03-01T14:45:19;7.30;99.20
7518;DHT22;3800;48.922;9.444;2023-03-01T14:47:47;7.40;98.50
7518;DHT22;3800;48.922;9.444;2023-03-01T14:50:22;7.40;98.90
7518;DHT22;3800;48.922;9.444;2023-03-01T14:52:47;7.40;99.00
7518;DHT22;3800;48.922;9.444;2023-03-01T14:55:17;7.40;98.40
7518;DHT22;3800;48.922;9.444;2023-03-01T14:57:44;7.40;98.80
7518;DHT22;3800;48.922;9.444;2023-03-01T15:00:18;7.50;98.20
7518;DHT22;3800;48.922;9.444;2023-03-01T15:02:45;7.40;97.40
7518;DHT22;3800;48.922;9.444;2023-03-01T15:05:13;7.40;97.30
7518;DHT22;3800;48.922;9.444;2023-03-01T15:07:41;7.40;98.00
7518;DHT22;3800;48.922;9.444;2023-03-01T15:10:16;7.40;98.00
7518;DHT22;3800;48.922;9.444;2023-03-01T15:12:37;7.40;98.00
7518;DHT22;3800;48.922;9.444;2023-03-01T15:15:22;7.40;97.80
7518;DHT22;3800;48.922;9.444;2023-03-01T15:17:52;7.40;97.70
7518;DHT22;3800;48.922;9.444;2023-03-01T15:20:18;7.40;97.90
7518;DHT22;3800;48.922;9.444;2023-03-01T15:22:47;7.40;97.60
7518;DHT22;3800;48.922;9.444;2023-03-01T15:25:16;7.40;97.50
7518;DHT22;3800;48.922;9.444;2023-03-01T15:27:46;7.40;98.00
7518;DHT22;3800;48.922;9.444;2023-03-01T15:30:19;7.40;98.10
7518;DHT22;3800;48.922;9.444;2023-03-01T15:32:46;7.40;98.20
7518;DHT22;3800;48.922;9.444;2023-03-01T15:37:53;7.40;97.60
7518;DHT22;3800;48.922;9.444;2023-03-01T15:40:27;7.40;97.30
7518;DHT22;3800;48.922;9.444;2023-03-01T15:42:59;7.40;97.20
7518;DHT22;3800;48.922;9.444;2023-03-01T15:45:27;7.40;97.40
7518;DHT22;3800;48.922;9.444;2023-03-01T15:47:55;7.40;97.20
7518;DHT22;3800;48.922;9.444;2023-03-01T15:50:23;7.40;97.40
7518;DHT22;3800;48.922;9.444;2023-03-01T15:52:49;7.40;97.70
7518;DHT22;3800;48.922;9.444;2023-03-01T15:55:22;7.40;98.00
7518;DHT22;3800;48.922;9.444;2023-03-01T15:57:48;7.40;97.70
7518;DHT22;3800;48.922;9.444;2023-03-01T16:00:16;7.30;97.40
7518;DHT22;3800;48.922;9.444;2023-03-01T16:02:44;7.30;97.00
7518;DHT22;3800;48.922;9.444;2023-03-01T16:05:19;7.30;97.30
7518;DHT22;3800;48.922;9.444;2023-03-01T16:07:46;7.20;97.50
7518;DHT22;3800;48.922;9.444;2023-03-01T16:10:13;7.20;97.50
7518;DHT22;3800;48.922;9.444;2023-03-01T16:12:41;7.20;97.80
7518;DHT22;3800;48.922;9.444;2023-03-01T16:15:15;7.20;98.40
7518;DHT22;3800;48.922;9.444;2023-03-01T16:17:41;7.10;98.00
7518;DHT22;3800;48.922;9.444;2023-03-01T16:20:09;7.00;97.40
7518;DHT22;3800;48.922;9.444;2023-03-01T16:22:37;7.00;97.80
7518;DHT22;3800;48.922;9.444;2023-03-01T16:25:05;6.90;97.60
7518;DHT22;3800;48.922;9.444;2023-03-01T16:27:33;6.90;98.20
7518;DHT22;3800;48.922;9.444;2023-03-01T16:30:03;6.80;98.50
7518;DHT22;3800;48.922;9.444;2023-03-01T16:32:31;6.60;98.30
7518;DHT22;3800;48.922;9.444;2023-03-01T16:35:01;6.60;99.10
7518;DHT22;3800;48.922;9.444;2023-03-01T16:37:29;6.50;98.80
7518;DHT22;3800;48.922;9.444;2023-03-01T16:39:56;6.40;99.00